Time;durP1;ratioP1;P1;durP2;ratioP2;P2;SDS_P1;SDS_P2;PMS_P1;PMS_P2;Temp;Humidity;BMP_temperature;BMP_pressure;BME280_temperature;BME280_humidity;BME280_pressure;Samples;Min_cycle;Max_cycle;Signal;HPM_P1;HPM_P2
2022/02/09 00:00:27;;;;;;;3.22;3.03;;;5.60;99.90;;;;;;493913;241;27633;-68
2022/02/09 00:02:47;;;;;;;4.30;3.70;;;5.60;99.90;;;;;;493758;241;27509;-68
2022/02/09 00:04:44;;;;;;;4.32;4.03;;;5.60;99.90;;;;;;493100;241;27488;-68
2022/02/09 00:06:46;;;;;;;3.67;3.37;;;5.60;99.90;;;;;;493580;241;27517;-68
2022/02/09 00:08:41;;;;;;;4.00;3.60;;;5.60;99.90;;;;;;493391;241;28005;-68
2022/02/09 00:10:45;;;;;;;4.05;3.72;;;5.60;99.90;;;;;;494020;241;27981;-68
2022/02/09 00:12:55;;;;;;;4.10;3.70;;;5.60;99.90;;;;;;493722;241;27991;-68
2022/02/09 00:15:10;;;;;;;3.72;3.42;;;5.60;99.90;;;;;;493237;241;27510;-68
2022/02/09 00:19:15;;;;;;;4.28;3.87;;;5.50;99.90;;;;;;493799;239;27490;-68
2022/02/09 00:21:25;;;;;;;3.70;3.40;;;5.50;99.90;;;;;;493142;241;27572;-68
2022/02/09 00:27:54;;;;;;;3.20;3.00;;;5.50;99.90;;;;;;494027;241;27920;-68
2022/02/09 00:34:13;;;;;;;3.20;2.90;;;5.50;99.90;;;;;;494023;241;27995;-68
2022/02/09 00:59:51;;;;;;;4.60;3.37;;;5.50;99.90;;;;;;484622;244;27493;-68
2022/02/09 01:11:18;;;;;;;2.90;2.70;;;5.50;99.90;;;;;;484612;244;27532;-68
2022/02/09 01:39:47;;;;;;;3.17;2.87;;;5.50;99.90;;;;;;493998;241;27585;-68
2022/02/09 01:44:35;;;;;;;3.25;2.92;;;5.50;99.90;;;;;;493990;241;27503;-68
2022/02/09 01:55:32;;;;;;;3.87;2.72;;;5.50;99.90;;;;;;494025;241;27528;-67
2022/02/09 01:57:29;;;;;;;2.92;2.67;;;5.50;99.90;;;;;;493681;241;29225;-68
2022/02/09 01:59:30;;;;;;;4.12;2.95;;;5.50;99.90;;;;;;493995;241;27506;-68
2022/02/09 02:01:32;;;;;;;2.80;2.50;;;5.50;99.90;;;;;;494030;241;27554;-68
2022/02/09 02:03:33;;;;;;;2.70;2.50;;;5.50;99.90;;;;;;494026;241;27505;-68
2022/02/09 02:05:37;;;;;;;2.62;2.42;;;5.50;99.90;;;;;;494041;241;27560;-68
2022/02/09 02:07:50;;;;;;;2.80;2.60;;;5.40;99.90;;;;;;494040;241;27910;-68
2022/02/09 02:09:46;;;;;;;2.70;2.50;;;5.40;99.90;;;;;;493574;241;28013;-68
2022/02/09 02:12:00;;;;;;;2.65;2.50;;;5.40;99.90;;;;;;493993;241;27548;-68
2022/02/09 02:14:09;;;;;;;3.00;2.80;;;5.40;99.90;;;;;;493432;241;27989;-68
2022/02/09 02:16:18;;;;;;;2.62;2.40;;;5.50;99.90;;;;;;492950;241;27590;-68
2022/02/09 02:18:08;;;;;;;2.50;2.30;;;5.50;99.90;;;;;;493022;241;27592;-68
2022/02/09 02:20:26;;;;;;;2.08;1.95;;;5.40;99.90;;;;;;494043;241;27509;-68
2022/02/09 02:22:45;;;;;;;2.90;2.58;;;5.40;99.90;;;;;;492829;241;27532;-68
2022/02/09 02:24:46;;;;;;;4.60;2.50;;;5.40;99.90;;;;;;492363;241;27945;-68
2022/02/09 02:26:41;;;;;;;2.22;2.10;;;5.40;99.90;;;;;;492269;241;27489;-68
2022/02/09 02:37:52;;;;;;;2.75;2.55;;;5.40;99.90;;;;;;494022;241;28071;-68
2022/02/09 02:42:52;;;;;;;2.58;2.37;;;5.40;99.90;;;;;;494034;241;27544;-68
2022/02/09 02:57:32;;;;;;;2.45;2.35;;;5.40;99.90;;;;;;494025;241;28008;-68
2022/02/09 03:08:42;;;;;;;3.08;2.78;;;5.40;99.90;;;;;;494001;241;27493;-68
2022/02/09 03:12:43;;;;;;;2.70;2.50;;;5.40;99.90;;;;;;494002;241;27546;-68
2022/02/09 03:16:55;;;;;;;2.80;2.60;;;5.40;99.90;;;;;;493972;241;27511;-68
2022/02/09 03:19:19;;;;;;;3.45;3.15;;;5.40;99.90;;;;;;492950;241;27533;-68
2022/02/09 03:21:22;;;;;;;4.53;3.37;;;5.40;99.90;;;;;;492285;241;27479;-68
2022/02/09 03:23:27;;;;;;;4.62;3.25;;;5.50;99.90;;;;;;492660;241;28106;-68
2022/02/09 03:48:13;;;;;;;4.20;3.75;;;5.50;99.90;;;;;;493990;241;27942;-69
2022/02/09 03:51:44;;;;;;;4.72;3.97;;;5.50;99.90;;;;;;494009;241;27528;-69
2022/02/09 03:54:03;;;;;;;4.55;3.50;;;5.40;99.90;;;;;;493185;241;27539;-69
2022/02/09 03:56:12;;;;;;;5.80;3.72;;;5.50;99.90;;;;;;492323;241;27509;-69
2022/02/09 03:57:50;;;;;;;3.65;3.35;;;5.50;99.90;;;;;;492220;241;27913;-69
2022/02/09 03:59:51;;;;;;;3.83;3.42;;;5.40;99.90;;;;;;494028;241;28162;-70
2022/02/09 04:01:52;;;;;;;4.62;4.10;;;5.40;99.90;;;;;;494022;241;27618;-69
2022/02/09 04:03:54;;;;;;;4.68;3.60;;;5.40;99.90;;;;;;493996;241;27501;-69
2022/02/09 04:05:55;;;;;;;4.75;3.90;;;5.40;99.90;;;;;;494005;241;27477;-69
2022/02/09 04:07:57;;;;;;;5.32;4.82;;;5.40;99.90;;;;;;494031;241;27473;-69
2022/02/09 04:10:00;;;;;;;4.70;3.78;;;5.50;99.90;;;;;;494011;241;27518;-69
2022/02/09 04:14:19;;;;;;;4.37;3.80;;;5.40;99.90;;;;;;494018;241;27513;-69
2022/02/09 04:36:57;;;;;;;4.90;3.80;;;5.50;99.90;;;;;;494034;241;28039;-69
2022/02/09 04:39:04;;;;;;;7.50;3.12;;;5.50;99.90;;;;;;493244;241;27780;-69
2022/02/09 04:47:47;;;;;;;5.28;4.43;;;5.50;99.90;;;;;;494043;241;27587;-69
2022/02/09 04:49:40;;;;;;;4.65;4.20;;;5.40;99.90;;;;;;492676;241;28108;-69
2022/02/09 04:51:45;;;;;;;4.72;3.72;;;5.50;99.90;;;;;;493457;241;27975;-69
2022/02/09 04:56:02;;;;;;;6.95;3.90;;;5.50;99.90;;;;;;494045;241;27513;-69
2022/02/09 04:58:03;;;;;;;4.05;3.55;;;5.50;99.90;;;;;;493681;241;27980;-69
2022/02/09 05:22:49;;;;;;;4.82;3.25;;;5.50;99.90;;;;;;493836;241;27972;-69
2022/02/09 05:24:49;;;;;;;4.22;3.62;;;5.50;99.90;;;;;;493056;241;27506;-69
2022/02/09 05:26:49;;;;;;;4.62;3.10;;;5.50;99.90;;;;;;493300;241;27548;-69
2022/02/09 05:28:43;;;;;;;4.18;3.28;;;5.50;99.90;;;;;;493377;241;27553;-69
2022/02/09 05:30:45;;;;;;;5.70;4.05;;;5.50;99.90;;;;;;493980;241;27479;-70
2022/02/09 05:32:47;;;;;;;4.60;3.70;;;5.50;99.90;;;;;;493993;241;27477;-68
2022/02/09 05:34:47;;;;;;;4.20;3.78;;;5.50;99.90;;;;;;493911;241;27590;-68
2022/02/09 05:36:48;;;;;;;3.47;3.08;;;5.50;99.90;;;;;;493988;241;27474;-68
2022/02/09 05:38:49;;;;;;;3.97;3.58;;;5.50;99.90;;;;;;493968;241;28005;-69
2022/02/09 05:40:50;;;;;;;8.77;4.25;;;5.50;99.90;;;;;;493980;241;29011;-69
2022/02/09 05:42:52;;;;;;;3.25;2.95;;;5.50;99.90;;;;;;494026;241;27468;-69
2022/02/09 05:44:53;;;;;;;4.25;3.30;;;5.50;99.90;;;;;;494010;241;27698;-68
2022/02/09 05:51:34;;;;;;;3.78;3.28;;;5.50;99.90;;;;;;494010;241;27629;-68
2022/02/09 05:53:56;;;;;;;3.37;3.08;;;5.50;99.90;;;;;;493475;241;27486;-68
2022/02/09 05:57:53;;;;;;;2.72;2.45;;;5.50;99.90;;;;;;494020;241;27496;-68
2022/02/09 05:59:50;;;;;;;3.35;3.15;;;5.50;99.90;;;;;;493706;241;27452;-68
2022/02/09 06:01:52;;;;;;;3.40;3.10;;;5.50;99.90;;;;;;493972;241;27580;-68
2022/02/09 06:03:53;;;;;;;3.17;2.87;;;5.50;99.90;;;;;;494026;241;27990;-68
2022/02/09 06:05:54;;;;;;;2.92;2.70;;;5.50;99.90;;;;;;494008;241;27940;-68
2022/02/09 06:07:56;;;;;;;2.95;2.75;;;5.50;99.90;;;;;;494016;241;27592;-69
2022/02/09 06:09:57;;;;;;;5.22;3.20;;;5.50;99.90;;;;;;493989;241;27470;-68
2022/02/09 06:21:05;;;;;;;2.90;2.60;;;5.50;99.90;;;;;;494028;241;27503;-68
2022/02/09 06:23:07;;;;;;;3.78;3.20;;;5.50;99.90;;;;;;494001;241;27606;-69
2022/02/09 06:25:08;;;;;;;3.40;3.10;;;5.50;99.90;;;;;;494015;241;27644;-69
2022/02/09 06:27:09;;;;;;;3.78;3.17;;;5.50;99.90;;;;;;493993;241;27600;-69
2022/02/09 06:29:10;;;;;;;5.53;3.72;;;5.50;99.90;;;;;;494011;241;27470;-69
2022/02/09 06:31:12;;;;;;;4.55;3.60;;;5.50;99.90;;;;;;494003;241;27528;-68
2022/02/09 06:33:14;;;;;;;3.75;3.30;;;5.50;99.90;;;;;;494025;241;27948;-68
2022/02/09 06:35:15;;;;;;;4.93;3.80;;;5.50;99.90;;;;;;493942;241;27998;-69
2022/02/09 06:37:20;;;;;;;7.87;3.15;;;5.50;99.90;;;;;;493963;241;27913;-69
2022/02/09 06:39:17;;;;;;;6.25;4.00;;;5.50;99.90;;;;;;493553;241;27486;-68
2022/02/09 06:41:18;;;;;;;5.10;4.20;;;5.50;99.90;;;;;;493958;241;27597;-71
2022/02/09 06:43:19;;;;;;;4.95;3.85;;;5.50;99.90;;;;;;493975;241;27600;-68
2022/02/09 06:45:24;;;;;;;7.95;4.40;;;5.50;99.90;;;;;;493974;241;27553;-71
2022/02/09 06:47:25;;;;;;;4.97;4.15;;;5.50;99.90;;;;;;493677;241;27593;-68
2022/02/09 06:49:23;;;;;;;4.68;3.67;;;5.50;99.90;;;;;;493771;241;27516;-70
2022/02/09 06:51:30;;;;;;;7.20;4.43;;;5.60;99.90;;;;;;494000;241;28092;-70
2022/02/09 06:53:34;;;;;;;6.95;5.03;;;5.60;99.90;;;;;;493484;241;27934;-68
2022/02/09 06:55:30;;;;;;;7.03;4.80;;;5.60;99.90;;;;;;493541;241;27493;-68
2022/02/09 06:57:45;;;;;;;7.53;4.45;;;5.60;99.90;;;;;;494010;241;27510;-68
2022/02/09 06:59:34;;;;;;;5.80;4.00;;;5.60;99.90;;;;;;492877;241;27933;-70
2022/02/09 07:01:33;;;;;;;4.82;4.25;;;5.60;99.90;;;;;;493885;241;27966;-70
2022/02/09 07:03:35;;;;;;;5.53;4.05;;;5.60;99.90;;;;;;494003;241;28097;-70
2022/02/09 07:05:36;;;;;;;6.10;3.80;;;5.60;99.90;;;;;;494000;241;27476;-68
2022/02/09 07:07:37;;;;;;;9.68;4.28;;;5.60;99.90;;;;;;494036;241;27589;-68
2022/02/09 07:09:38;;;;;;;5.18;3.83;;;5.60;99.90;;;;;;494053;241;27510;-68
2022/02/09 07:11:40;;;;;;;6.53;4.10;;;5.60;99.90;;;;;;494034;241;27473;-68
2022/02/09 07:13:41;;;;;;;3.92;3.53;;;5.60;99.90;;;;;;493995;241;27504;-70
2022/02/09 07:15:47;;;;;;;4.30;3.70;;;5.60;99.90;;;;;;494006;241;27560;-70
2022/02/09 07:17:44;;;;;;;4.55;4.10;;;5.60;99.90;;;;;;493594;241;27510;-70
2022/02/09 07:19:52;;;;;;;4.90;3.90;;;5.60;99.90;;;;;;493989;241;28038;-70
2022/02/09 07:21:46;;;;;;;4.47;4.07;;;5.60;99.90;;;;;;493396;241;27921;-68
2022/02/09 07:23:50;;;;;;;9.50;4.45;;;5.60;99.90;;;;;;493990;241;27584;-69
2022/02/09 07:26:01;;;;;;;4.93;4.22;;;5.70;99.90;;;;;;493766;241;27636;-69
2022/02/09 07:27:51;;;;;;;5.65;4.32;;;5.70;99.90;;;;;;492901;241;27560;-70
2022/02/09 07:29:51;;;;;;;5.37;4.65;;;5.70;99.90;;;;;;493893;241;27502;-69
2022/02/09 07:31:52;;;;;;;4.95;4.30;;;5.70;99.90;;;;;;494022;241;27548;-69
2022/02/09 07:33:54;;;;;;;4.43;4.00;;;5.70;99.90;;;;;;493984;241;27521;-70
2022/02/09 07:35:55;;;;;;;6.20;3.97;;;5.70;99.90;;;;;;494025;241;27533;-68
2022/02/09 07:37:56;;;;;;;4.93;3.42;;;5.80;99.90;;;;;;494053;241;27998;-68
2022/02/09 07:39:59;;;;;;;4.95;4.22;;;5.80;99.90;;;;;;494035;241;28105;-68
2022/02/09 07:42:07;;;;;;;4.50;4.10;;;5.80;99.90;;;;;;493922;241;27474;-68
2022/02/09 07:46:26;;;;;;;4.10;3.65;;;5.90;99.90;;;;;;494072;241;27579;-68
2022/02/09 07:52:26;;;;;;;4.60;4.03;;;5.90;99.90;;;;;;494033;241;27532;-68
2022/02/09 07:54:26;;;;;;;3.60;3.30;;;5.90;99.90;;;;;;493982;241;27550;-68
2022/02/09 07:56:28;;;;;;;4.37;3.90;;;6.00;99.90;;;;;;493997;241;27940;-70
2022/02/09 07:58:29;;;;;;;4.45;4.05;;;6.00;99.90;;;;;;493995;241;28064;-68
2022/02/09 08:00:30;;;;;;;5.00;4.50;;;6.00;99.90;;;;;;494045;241;27493;-68
2022/02/09 08:02:31;;;;;;;4.20;3.70;;;6.00;99.90;;;;;;494003;241;27510;-68
2022/02/09 08:04:33;;;;;;;4.30;3.90;;;6.10;99.90;;;;;;494018;241;27546;-70
2022/02/09 08:06:34;;;;;;;7.20;3.55;;;6.10;99.90;;;;;;493991;241;27605;-70
2022/02/09 08:08:36;;;;;;;5.20;4.07;;;6.10;99.90;;;;;;494033;237;27513;-70
2022/02/09 08:10:54;;;;;;;5.30;4.32;;;6.20;99.90;;;;;;494047;241;27524;-70
2022/02/09 08:27:06;;;;;;;3.58;3.28;;;6.40;99.90;;;;;;494029;241;28045;-70
2022/02/09 08:29:20;;;;;;;3.80;3.50;;;6.40;99.90;;;;;;492788;241;27596;-70
2022/02/09 08:33:19;;;;;;;4.68;3.42;;;6.50;99.90;;;;;;494053;241;27513;-71
2022/02/09 08:35:19;;;;;;;4.17;3.77;;;6.50;99.90;;;;;;494040;241;27450;-68
2022/02/09 08:37:21;;;;;;;4.60;3.17;;;6.50;99.90;;;;;;494015;241;27973;-68
2022/02/09 08:39:22;;;;;;;3.70;3.10;;;6.40;99.90;;;;;;494047;241;27993;-68
2022/02/09 08:41:23;;;;;;;3.53;3.00;;;6.30;99.90;;;;;;494025;241;27986;-68
2022/02/09 08:43:24;;;;;;;3.67;3.15;;;6.30;99.90;;;;;;494005;241;27516;-70
2022/02/09 08:45:26;;;;;;;6.35;3.67;;;6.20;99.90;;;;;;493990;241;27466;-70
2022/02/09 08:47:27;;;;;;;3.60;3.10;;;6.20;99.90;;;;;;494041;241;27471;-71
2022/02/09 08:49:29;;;;;;;3.75;3.40;;;6.20;99.90;;;;;;494043;241;28000;-70
2022/02/09 08:51:29;;;;;;;4.97;3.35;;;6.10;99.90;;;;;;494032;241;27940;-70
2022/02/09 08:53:33;;;;;;;3.72;3.37;;;6.10;99.90;;;;;;494004;241;27522;-70
2022/02/09 08:55:34;;;;;;;3.55;3.10;;;6.20;99.90;;;;;;493814;241;27466;-70
2022/02/09 08:57:34;;;;;;;3.58;3.25;;;6.20;99.90;;;;;;493908;241;27526;-70
2022/02/09 08:59:34;;;;;;;4.32;3.40;;;6.20;99.90;;;;;;493965;241;27500;-70
2022/02/09 09:01:43;;;;;;;3.50;3.20;;;6.20;99.90;;;;;;494011;241;27479;-70
2022/02/09 09:03:50;;;;;;;3.03;2.78;;;6.20;99.90;;;;;;493715;241;27482;-70
2022/02/09 09:05:50;;;;;;;4.62;3.40;;;6.20;99.90;;;;;;493671;241;27931;-70
2022/02/09 09:08:06;;;;;;;3.80;3.50;;;6.20;99.90;;;;;;494010;241;27473;-70
2022/02/09 09:10:05;;;;;;;3.40;3.10;;;6.30;99.90;;;;;;492783;241;27597;-70
2022/02/09 09:31:23;;;;;;;3.42;2.95;;;6.50;99.90;;;;;;494024;241;27921;-70
2022/02/09 10:00:03;;;;;;;3.10;2.80;;;7.00;99.90;;;;;;494033;241;27604;-70
2022/02/09 10:01:39;;;;;;;4.72;2.87;;;7.00;99.90;;;;;;492232;241;27583;-67
2022/02/09 10:03:32;;;;;;;6.22;2.90;;;7.00;99.90;;;;;;492542;241;27457;-68
2022/02/09 10:32:51;;;;;;;2.50;2.10;;;7.60;99.90;;;;;;494090;241;27960;-70
2022/02/09 10:34:48;;;;;;;3.83;2.70;;;7.60;99.90;;;;;;493738;241;29399;-70
2022/02/09 10:36:51;;;;;;;2.50;2.28;;;7.60;99.90;;;;;;494039;241;29267;-70
2022/02/09 10:38:52;;;;;;;5.68;2.53;;;7.70;99.90;;;;;;493907;241;27526;-71
2022/02/09 10:40:54;;;;;;;5.43;2.53;;;7.70;99.90;;;;;;494011;241;27634;-68
2022/02/09 10:42:59;;;;;;;5.10;2.50;;;7.80;99.90;;;;;;493883;241;28842;-68
2022/02/09 10:45:03;;;;;;;3.33;2.27;;;7.80;99.90;;;;;;493546;241;27513;-70
2022/02/09 10:46:59;;;;;;;4.72;2.55;;;7.90;99.90;;;;;;493281;241;28048;-70
2022/02/09 10:49:02;;;;;;;6.73;2.33;;;7.80;99.90;;;;;;494036;241;28831;-70
2022/02/09 10:51:01;;;;;;;3.53;2.43;;;7.80;99.90;;;;;;493944;241;28464;-71
2022/02/09 10:53:02;;;;;;;3.43;2.30;;;7.80;99.90;;;;;;494040;241;29361;-70
2022/02/09 10:55:04;;;;;;;3.83;2.47;;;8.00;99.90;;;;;;494022;241;28531;-70
2022/02/09 10:57:07;;;;;;;2.47;2.27;;;8.00;99.90;;;;;;494006;241;28084;-71
2022/02/09 10:59:06;;;;;;;2.93;2.63;;;8.00;99.90;;;;;;493868;241;27945;-70
2022/02/09 11:01:07;;;;;;;2.80;2.17;;;8.10;99.90;;;;;;494063;241;27712;-70
2022/02/09 11:03:09;;;;;;;2.60;2.03;;;8.10;99.90;;;;;;494053;241;28059;-70
2022/02/09 11:05:10;;;;;;;3.23;2.40;;;8.10;99.90;;;;;;494022;241;28393;-70
2022/02/09 11:07:13;;;;;;;3.40;2.17;;;8.20;99.90;;;;;;493996;241;28893;-70
2022/02/09 11:09:14;;;;;;;2.30;2.10;;;8.30;99.90;;;;;;493879;241;27552;-71
2022/02/09 11:11:15;;;;;;;2.60;2.17;;;8.30;99.90;;;;;;494020;241;27867;-70
2022/02/09 11:13:16;;;;;;;4.90;2.30;;;8.30;99.90;;;;;;494042;241;28326;-70
2022/02/09 11:15:18;;;;;;;2.73;2.23;;;8.40;99.90;;;;;;494052;241;27841;-71
2022/02/09 11:17:20;;;;;;;4.17;2.20;;;8.30;99.90;;;;;;494043;241;28437;-70
2022/02/09 11:19:20;;;;;;;5.17;2.47;;;8.40;99.90;;;;;;494013;241;28358;-70
2022/02/09 11:21:21;;;;;;;3.80;2.00;;;8.40;99.90;;;;;;494022;241;28270;-71
2022/02/09 11:23:26;;;;;;;2.30;2.10;;;8.30;99.90;;;;;;494058;241;28543;-71
2022/02/09 11:25:31;;;;;;;3.93;2.03;;;8.40;99.90;;;;;;493810;241;27998;-71
2022/02/09 11:27:33;;;;;;;2.40;1.90;;;8.50;99.90;;;;;;493477;241;28062;-70
2022/02/09 11:31:34;;;;;;;5.43;2.13;;;8.50;99.90;;;;;;494028;241;27576;-71
2022/02/09 11:33:38;;;;;;;2.90;1.70;;;8.50;99.90;;;;;;493506;241;27973;-70
2022/02/09 11:35:36;;;;;;;3.30;2.30;;;8.60;99.90;;;;;;493288;241;27729;-70
2022/02/09 11:37:33;;;;;;;3.80;2.43;;;8.70;99.90;;;;;;493563;241;28037;-71
2022/02/09 11:39:33;;;;;;;4.77;2.20;;;8.70;99.90;;;;;;493914;241;28068;-70
2022/02/09 11:41:38;;;;;;;3.10;2.40;;;8.60;99.90;;;;;;494018;241;28463;-71
2022/02/09 11:43:42;;;;;;;2.60;1.90;;;8.80;99.90;;;;;;493708;241;28342;-70
2022/02/09 11:48:31;;;;;;;2.23;2.07;;;8.90;99.90;;;;;;494050;241;27993;-68
2022/02/09 11:50:32;;;;;;;4.23;2.60;;;8.90;99.90;;;;;;492247;241;28074;-68
2022/02/09 11:59:35;;;;;;;4.03;2.27;;;9.00;99.90;;;;;;494021;241;28136;-70
2022/02/09 12:09:53;;;;;;;3.10;1.90;;;9.10;99.90;;;;;;494046;241;27939;-71
2022/02/09 12:11:57;;;;;;;5.03;1.70;;;9.10;99.90;;;;;;493972;237;28018;-71
2022/02/09 12:18:12;;;;;;;4.87;2.20;;;9.10;99.90;;;;;;493984;241;27609;-70
2022/02/09 12:20:05;;;;;;;4.00;2.13;;;9.10;99.90;;;;;;492904;241;27839;-70
2022/02/09 12:22:12;;;;;;;2.20;1.67;;;9.20;99.90;;;;;;493632;241;28050;-71
2022/02/09 12:24:06;;;;;;;2.53;1.80;;;9.20;99.90;;;;;;493426;241;28473;-71
2022/02/09 12:26:07;;;;;;;2.27;1.93;;;9.30;99.90;;;;;;494044;241;28017;-71
2022/02/09 12:28:08;;;;;;;2.13;1.93;;;9.30;99.90;;;;;;494014;241;27983;-71
2022/02/09 12:30:12;;;;;;;2.70;1.97;;;9.30;99.90;;;;;;494011;241;28469;-71
2022/02/09 12:32:11;;;;;;;2.40;1.70;;;9.30;99.90;;;;;;493845;241;28152;-71
2022/02/09 12:34:12;;;;;;;5.57;1.90;;;9.30;99.90;;;;;;494060;241;28326;-71
2022/02/09 12:36:13;;;;;;;4.40;2.10;;;9.30;99.90;;;;;;494047;241;28411;-71
2022/02/09 12:38:14;;;;;;;2.13;1.90;;;9.40;99.90;;;;;;494025;241;28235;-71
2022/02/09 12:40:16;;;;;;;1.73;1.63;;;9.40;99.90;;;;;;494012;241;27954;-71
2022/02/09 12:42:19;;;;;;;1.60;1.50;;;9.40;99.90;;;;;;494023;241;27964;-71
2022/02/09 12:44:18;;;;;;;2.60;1.77;;;9.40;99.90;;;;;;493927;241;27604;-71
2022/02/09 12:46:19;;;;;;;2.60;2.17;;;9.50;99.90;;;;;;494021;241;27930;-71
2022/02/09 12:48:21;;;;;;;1.93;1.50;;;9.50;99.90;;;;;;494013;241;27970;-71
2022/02/09 12:50:25;;;;;;;2.97;2.13;;;9.40;99.90;;;;;;494022;241;28121;-71
2022/02/09 12:52:28;;;;;;;7.00;2.00;;;9.40;99.90;;;;;;493983;241;28011;-71
2022/02/09 12:54:27;;;;;;;2.30;1.70;;;9.40;99.90;;;;;;493829;241;27837;-71
2022/02/09 12:56:30;;;;;;;3.53;1.80;;;9.50;99.90;;;;;;494045;241;27982;-71
2022/02/09 12:58:31;;;;;;;3.30;2.00;;;9.50;99.90;;;;;;494025;241;28014;-71
2022/02/09 13:00:38;;;;;;;1.80;1.70;;;9.60;99.90;;;;;;494029;241;27824;-71
2022/02/09 13:02:36;;;;;;;2.90;1.60;;;9.60;99.90;;;;;;493813;241;28140;-71
2022/02/09 13:04:38;;;;;;;4.83;1.70;;;9.60;99.90;;;;;;494040;241;27931;-71
2022/02/09 13:06:39;;;;;;;2.20;1.73;;;9.70;99.90;;;;;;494000;241;27580;-71
2022/02/09 13:08:40;;;;;;;2.80;1.97;;;9.60;99.90;;;;;;494020;241;27802;-71
2022/02/09 13:10:41;;;;;;;2.83;2.40;;;9.60;99.90;;;;;;494003;241;27982;-71
2022/02/09 13:12:43;;;;;;;2.00;1.87;;;9.60;99.90;;;;;;493996;241;27980;-71
2022/02/09 13:14:46;;;;;;;2.20;2.00;;;9.70;99.90;;;;;;494046;241;27939;-71
2022/02/09 13:22:13;;;;;;;2.03;1.70;;;9.50;99.90;;;;;;494021;241;28086;-70
2022/02/09 14:11:42;;;;;;;2.20;1.97;;;9.80;99.90;;;;;;494049;241;27935;-68
2022/02/09 14:34:58;;;;;;;3.60;1.80;;;9.80;99.90;;;;;;494004;241;28412;-69
2022/02/09 14:52:37;;;;;;;2.97;2.03;;;9.80;99.90;;;;;;494024;241;28522;-69
2022/02/09 14:54:46;;;;;;;2.67;1.80;;;9.70;99.90;;;;;;493387;241;28937;-69
2022/02/09 14:58:58;;;;;;;1.77;1.67;;;9.90;99.90;;;;;;494048;241;27982;-69
2022/02/09 15:03:17;;;;;;;2.10;1.60;;;9.70;99.90;;;;;;494009;241;28294;-69
2022/02/09 15:14:09;;;;;;;1.67;1.57;;;9.70;99.90;;;;;;494034;241;27935;-71
2022/02/09 15:18:47;;;;;;;3.37;2.00;;;9.70;99.90;;;;;;494055;241;27973;-69
2022/02/09 15:20:46;;;;;;;1.67;1.57;;;9.70;99.90;;;;;;492152;241;28191;-69
2022/02/09 15:22:42;;;;;;;1.50;1.40;;;9.70;99.90;;;;;;493332;241;28399;-69
2022/02/09 15:24:43;;;;;;;2.07;1.53;;;9.70;99.90;;;;;;493803;241;28056;-71
2022/02/09 15:26:45;;;;;;;1.60;1.50;;;9.60;99.90;;;;;;493856;241;28069;-71
2022/02/09 15:28:43;;;;;;;2.40;1.50;;;9.60;99.90;;;;;;493764;241;28012;-71
2022/02/09 15:31:01;;;;;;;1.80;1.53;;;9.50;99.90;;;;;;494007;241;27971;-71
2022/02/09 15:32:52;;;;;;;1.50;1.40;;;9.50;99.90;;;;;;492891;241;28472;-69
2022/02/09 15:34:55;;;;;;;1.90;1.80;;;9.50;99.90;;;;;;493700;241;28441;-70
2022/02/09 15:37:16;;;;;;;4.70;1.60;;;9.50;99.90;;;;;;493642;241;28485;-70
2022/02/09 15:39:11;;;;;;;1.90;1.70;;;9.40;99.90;;;;;;493504;241;27836;-71
2022/02/09 15:43:41;;;;;;;1.60;1.50;;;9.40;99.90;;;;;;494058;241;28425;-69
2022/02/09 15:59:21;;;;;;;1.50;1.40;;;9.00;99.90;;;;;;494005;241;28284;-69
2022/02/09 16:06:01;;;;;;;3.13;2.00;;;8.90;99.90;;;;;;494046;241;27730;-69
2022/02/09 16:23:48;;;;;;;1.33;1.33;;;8.60;99.90;;;;;;494022;241;27972;-69
2022/02/09 16:44:18;;;;;;;1.57;1.47;;;7.90;99.90;;;;;;493855;241;27522;-69
2022/02/09 16:46:15;;;;;;;3.10;1.80;;;7.70;99.90;;;;;;494003;241;28585;-69
2022/02/09 16:48:17;;;;;;;1.40;1.30;;;7.60;99.90;;;;;;493935;241;28790;-69
2022/02/09 16:50:18;;;;;;;1.40;1.27;;;7.50;99.90;;;;;;493870;241;27758;-69
2022/02/09 16:52:26;;;;;;;1.80;1.70;;;7.50;99.90;;;;;;493871;241;27998;-69
2022/02/09 16:56:43;;;;;;;1.80;1.70;;;7.30;99.90;;;;;;494028;241;28390;-69
2022/02/09 17:19:19;;;;;;;2.20;1.92;;;7.20;99.90;;;;;;494017;241;27508;-69
2022/02/09 17:21:21;;;;;;;2.45;1.83;;;7.20;99.90;;;;;;494017;241;27564;-71
2022/02/09 17:23:22;;;;;;;2.35;1.70;;;7.20;99.90;;;;;;493996;241;27977;-71
2022/02/09 17:25:23;;;;;;;3.75;2.37;;;7.10;99.90;;;;;;494016;241;28680;-69
2022/02/09 17:27:28;;;;;;;2.08;1.98;;;7.10;99.90;;;;;;494030;241;27479;-71
2022/02/09 17:29:39;;;;;;;3.25;2.20;;;7.00;99.90;;;;;;493694;241;27589;-68
2022/02/09 17:34:15;;;;;;;2.70;2.50;;;6.90;99.90;;;;;;494016;241;28442;-68
2022/02/09 17:36:10;;;;;;;5.25;2.55;;;6.70;99.90;;;;;;492847;241;27480;-68
2022/02/09 17:38:31;;;;;;;2.92;2.60;;;6.60;99.90;;;;;;493410;241;27968;-70
2022/02/09 17:54:25;;;;;;;3.20;2.50;;;6.20;99.90;;;;;;494030;241;27979;-68
2022/02/09 17:56:10;;;;;;;2.47;2.28;;;6.20;99.90;;;;;;492184;241;27938;-69
2022/02/09 17:58:15;;;;;;;2.80;2.60;;;6.20;99.90;;;;;;493567;241;27533;-68
2022/02/09 18:00:16;;;;;;;2.20;2.00;;;6.10;99.90;;;;;;493498;241;27565;-68
2022/02/09 18:02:17;;;;;;;2.92;2.45;;;6.00;99.90;;;;;;494003;241;27477;-69
2022/02/09 18:04:22;;;;;;;4.00;2.35;;;6.00;99.90;;;;;;493980;241;27505;-69
2022/02/09 18:06:28;;;;;;;2.58;2.37;;;5.90;99.90;;;;;;493783;241;27576;-71
2022/02/09 18:08:31;;;;;;;2.35;2.10;;;5.80;99.90;;;;;;493513;241;27541;-69
2022/02/09 18:15:37;;;;;;;3.25;2.47;;;5.70;99.90;;;;;;494010;241;27981;-69
2022/02/09 18:27:19;;;;;;;2.70;2.50;;;5.30;99.90;;;;;;494029;241;27560;-69
2022/02/09 18:37:46;;;;;;;2.70;2.50;;;5.10;99.90;;;;;;494034;241;27467;-69
2022/02/09 18:44:28;;;;;;;2.53;2.33;;;4.90;99.90;;;;;;494015;241;27529;-68
2022/02/09 18:46:33;;;;;;;2.60;2.40;;;4.90;99.90;;;;;;493342;241;27989;-68
2022/02/09 19:00:00;;;;;;;2.25;2.15;;;4.60;99.90;;;;;;493996;241;27946;-69
2022/02/09 19:04:10;;;;;;;2.00;1.90;;;4.50;99.90;;;;;;493982;241;27505;-69
2022/02/09 19:06:11;;;;;;;2.10;2.00;;;4.40;99.90;;;;;;493350;241;27517;-69
2022/02/09 19:15:08;;;;;;;2.90;2.70;;;4.30;99.90;;;;;;493988;241;27481;-69
2022/02/09 19:17:00;;;;;;;6.00;2.78;;;4.30;99.90;;;;;;492556;241;27928;-69
2022/02/09 19:30:39;;;;;;;2.60;2.33;;;4.40;99.90;;;;;;494013;241;28029;-69
2022/02/09 19:32:44;;;;;;;3.60;2.80;;;4.50;99.90;;;;;;492826;241;27550;-68
2022/02/09 19:44:39;;;;;;;4.72;3.03;;;4.30;99.90;;;;;;494006;241;27592;-69
2022/02/09 19:48:11;;;;;;;4.00;3.53;;;4.30;99.90;;;;;;493974;241;27500;-68
2022/02/09 19:52:18;;;;;;;3.83;3.42;;;4.40;99.90;;;;;;494011;241;27518;-68
2022/02/09 19:54:38;;;;;;;4.62;3.60;;;4.30;99.90;;;;;;493445;241;27513;-69
2022/02/09 19:56:20;;;;;;;3.78;3.47;;;4.30;99.90;;;;;;492214;241;27506;-69
2022/02/09 19:58:20;;;;;;;6.78;3.90;;;4.30;99.90;;;;;;493680;241;27624;-69
2022/02/09 20:00:20;;;;;;;3.97;3.58;;;4.30;99.90;;;;;;493730;241;27536;-69
2022/02/09 20:02:20;;;;;;;3.72;3.40;;;4.30;99.90;;;;;;493957;241;27932;-69
2022/02/09 20:04:21;;;;;;;4.68;3.95;;;4.20;99.90;;;;;;494006;241;27484;-69
2022/02/09 20:06:22;;;;;;;4.47;4.07;;;4.20;99.90;;;;;;494004;241;27497;-69
2022/02/09 20:08:24;;;;;;;3.70;3.30;;;4.20;99.90;;;;;;494001;241;27925;-69
2022/02/09 20:10:27;;;;;;;5.20;4.30;;;4.20;99.90;;;;;;493967;241;28043;-69
2022/02/09 20:12:26;;;;;;;4.93;3.62;;;4.20;99.90;;;;;;493826;241;28084;-69
2022/02/09 20:14:28;;;;;;;3.55;3.25;;;4.20;99.90;;;;;;494018;237;28086;-69
2022/02/09 20:16:29;;;;;;;2.90;2.70;;;4.10;99.90;;;;;;493988;241;27539;-69
2022/02/09 20:18:33;;;;;;;4.95;3.97;;;4.10;99.90;;;;;;493999;241;27573;-69
2022/02/09 20:20:36;;;;;;;4.35;2.70;;;4.10;99.90;;;;;;493991;237;28773;-69
2022/02/09 20:22:35;;;;;;;3.67;3.37;;;4.10;99.90;;;;;;493800;241;28031;-68
2022/02/09 20:24:36;;;;;;;3.33;3.03;;;4.10;99.90;;;;;;494011;237;28019;-68
2022/02/09 20:26:38;;;;;;;4.65;3.30;;;4.10;99.90;;;;;;493975;241;27514;-69
2022/02/09 20:28:44;;;;;;;3.20;2.97;;;4.20;99.90;;;;;;493995;237;27627;-69
2022/02/09 20:30:45;;;;;;;3.00;2.55;;;4.20;99.90;;;;;;493550;241;27479;-68
2022/02/09 20:32:48;;;;;;;3.45;2.62;;;4.30;99.90;;;;;;493583;241;27485;-69
2022/02/09 20:34:55;;;;;;;3.20;2.90;;;4.30;99.90;;;;;;493456;241;27513;-69
2022/02/09 20:36:44;;;;;;;2.97;2.70;;;4.30;99.90;;;;;;493024;241;27590;-69
2022/02/09 20:38:50;;;;;;;3.22;2.95;;;4.30;99.90;;;;;;494007;241;27520;-69
2022/02/09 20:40:53;;;;;;;3.22;2.83;;;4.30;99.90;;;;;;493534;241;27482;-69
2022/02/09 20:42:55;;;;;;;3.60;2.97;;;4.30;99.90;;;;;;493665;238;27468;-69
2022/02/09 20:45:05;;;;;;;3.62;2.83;;;4.30;99.90;;;;;;493664;241;27467;-69
2022/02/09 20:46:59;;;;;;;3.70;3.00;;;4.30;99.90;;;;;;493371;241;27672;-69
2022/02/09 20:49:00;;;;;;;2.40;2.25;;;4.20;99.90;;;;;;493996;241;27461;-69
2022/02/09 20:51:02;;;;;;;2.58;2.37;;;4.20;99.90;;;;;;493969;241;27572;-69